Arnot, PA

5:18 PM EDT on September 01, 2014 (GMT -0400)
Penn Valley | Change Station
CLOSE
Current Station
Airport
Location: Selinsgrove,
Elevation: 449 ft
Nearby Weather Stations

Elev 449 ft 40.82 °N, 76.86 °W | Updated 25 minutes ago

Overcast
Overcast
84 °F
Feels Like 89 °F
N
0
Wind Variable Wind from North

Today
High -- | Low -- °F
--% Chance of Precip.
Yesterday
High -- | Low -- °F
Precip. -- in
6:34 AM 7:41 PM
Waxing Crescent, 44% visible
Pressure 29.94 in
Visibility 10.0 miles
Clouds Mostly Cloudy 7000 ft
Overcast 8000 ft
Heat Index 89 °F
Dew Point 71 °F
Humidity 65%
Rainfall 0.00 in
Snow Depth Not available.
UV 1 out of 12
Pollen 5.00 out of 12
Air Quality Not available.
Flu Activity Not available.
METAR KSEG 012053Z AUTO 00000KT 10SM BKN070 OVC080 29/22 A2994 RMK AO2 SLP136 T02890217 58013

More Conditions Fewer Conditions

Pressure 29.94 in
Visibility 10.0 miles
Clouds Mostly Cloudy 7000 ft
Overcast 8000 ft
Heat Index 89 °F
Dew Point 71 °F
Humidity 65%
Rainfall 0.00 in
Snow Depth Not available.
UV 1 out of 12
Pollen 5.00 out of 12
Air Quality Not available.
Flu Activity Not available.
METAR KSEG 012053Z AUTO 00000KT 10SM BKN070 OVC080 29/22 A2994 RMK AO2 SLP136 T02890217 58013

More Conditions Fewer Conditions

10-Day Weather Forecast

Almanac

Astronomy

Sep. 01, 2014 Rise Set
Actual Time 6:34 AM EDT 7:41 PM EDT
Civil Twilight 6:05 AM EDT 8:10 PM EDT
Nautical Twilight 5:31 AM EDT 8:44 PM EDT
Astronomical Twilight 4:55 AM EDT 9:19 PM EDT
Moon 1:23 PM EDT 11:35 PM EDT
Length of Visible Light 14h 04m
Length of Day
13h 07m
Tomorrow will be 2m 41s shorter.
Waxing Crescent, 44% of the Moon is Illuminated
Today
Waxing Crescent
Sep 2
First Quarter
Sep 8
Full
Sep 15
Last Quarter
Sep 24
New

Today's Extremes

State Highs State Lows

Community

WunderPhotos

Upload Photos

1,749,409 photos uploaded!

WunderBlogs® & News

Nearby

Snow Depth

Station Depth Elevation
No new snow has been reported.

Earthquake Activity

City Distance Mag. Time & Date
No recent earthquake activity has been reported nearby.
Minimum magnitude displayed is 2.5.

Coastal Water Temperatures

Place Temperature
No Stations Reporting

Nearby Weather Stations